Time;durP1;ratioP1;P1;durP2;ratioP2;P2;SDS_P1;SDS_P2;PMS_P1;PMS_P2;Temp;Humidity;BMP_temperature;BMP_pressure;BME280_temperature;BME280_humidity;BME280_pressure;Samples;Min_cycle;Max_cycle;Signal;HPM_P1;HPM_P2
2024/01/01 00:01:17;;;;;;;58.57;43.87;;;8.00;99.90;;;;;;5133297;27;20926;-87
2024/01/01 00:03:45;;;;;;;57.37;42.27;;;7.80;99.90;;;;;;5131396;27;20406;-90
2024/01/01 00:06:10;;;;;;;46.10;33.92;;;7.80;99.90;;;;;;5133050;27;20424;-89
2024/01/01 00:08:36;;;;;;;48.63;36.43;;;7.80;99.90;;;;;;5128829;27;20393;-88
2024/01/01 00:11:02;;;;;;;53.15;38.85;;;7.70;99.90;;;;;;5112667;27;20391;-90
2024/01/01 00:13:27;;;;;;;44.60;32.37;;;7.70;99.90;;;;;;5111424;27;20411;-89
2024/01/01 00:15:53;;;;;;;40.97;29.23;;;7.70;99.90;;;;;;5111564;27;20402;-89
2024/01/01 00:18:18;;;;;;;33.88;24.35;;;7.60;99.90;;;;;;5120735;27;20899;-93
2024/01/01 00:20:45;;;;;;;24.83;17.75;;;7.90;99.90;;;;;;5128219;27;20889;-89
2024/01/01 00:23:10;;;;;;;27.30;19.38;;;7.60;99.90;;;;;;5129087;27;20402;-90
2024/01/01 00:25:36;;;;;;;28.35;19.98;;;7.50;99.90;;;;;;5109904;27;20496;-88
2024/01/01 00:28:04;;;;;;;28.03;20.83;;;7.40;99.90;;;;;;5111330;27;20485;-88
2024/01/01 00:30:30;;;;;;;26.87;19.87;;;7.30;99.90;;;;;;5110667;27;20848;-86
2024/01/01 00:32:55;;;;;;;22.13;15.20;;;7.30;99.90;;;;;;5111190;27;20402;-89
2024/01/01 00:35:21;;;;;;;26.42;19.40;;;7.30;99.90;;;;;;5111207;27;20547;-88
2024/01/01 00:37:47;;;;;;;24.97;17.13;;;7.20;99.90;;;;;;5110466;27;20426;-88
2024/01/01 00:40:12;;;;;;;21.47;15.73;;;7.30;99.90;;;;;;5111579;27;20403;-89
2024/01/01 00:42:38;;;;;;;27.23;18.33;;;7.10;99.90;;;;;;5126881;27;20426;-88
2024/01/01 00:45:04;;;;;;;21.92;15.27;;;7.30;99.90;;;;;;5115544;27;20421;-88
2024/01/01 00:47:30;;;;;;;23.65;16.98;;;7.10;99.90;;;;;;5147284;27;20903;-89
2024/01/01 00:49:58;;;;;;;21.45;15.77;;;7.10;99.90;;;;;;5111821;27;20433;-89
2024/01/01 00:52:23;;;;;;;27.20;20.35;;;7.10;99.90;;;;;;5111011;27;20540;-88
2024/01/01 00:54:49;;;;;;;26.40;21.57;;;7.40;99.90;;;;;;5110679;27;20784;-90
2024/01/01 00:57:15;;;;;;;33.25;25.38;;;7.20;99.90;;;;;;5116964;27;20389;-88
2024/01/01 00:59:41;;;;;;;33.55;25.80;;;7.20;99.90;;;;;;5130243;27;20445;-89
2024/01/01 01:02:06;;;;;;;41.28;32.13;;;7.30;99.90;;;;;;5131859;27;20823;-88
2024/01/01 01:04:32;;;;;;;45.30;35.80;;;7.40;99.90;;;;;;5113441;27;20414;-88
2024/01/01 01:06:57;;;;;;;50.22;40.45;;;7.30;99.90;;;;;;5110601;27;20463;-87
2024/01/01 01:09:23;;;;;;;57.37;44.23;;;7.30;99.90;;;;;;5114707;27;20412;-89
2024/01/01 01:11:49;;;;;;;57.70;45.00;;;7.30;99.90;;;;;;5130175;27;20397;-89
2024/01/01 01:14:14;;;;;;;61.65;48.00;;;7.30;99.90;;;;;;5110067;27;20406;-87
2024/01/01 01:16:40;;;;;;;62.00;45.13;;;7.30;99.90;;;;;;5109240;27;21256;-86
2024/01/01 01:19:06;;;;;;;61.57;46.77;;;7.30;99.90;;;;;;5110516;27;20509;-93
2024/01/01 01:21:31;;;;;;;57.65;44.30;;;7.30;99.90;;;;;;5132404;27;20461;-89
2024/01/01 01:23:58;;;;;;;56.75;43.40;;;7.30;99.90;;;;;;5129439;27;20435;-88
2024/01/01 01:26:24;;;;;;;57.13;44.25;;;7.30;99.90;;;;;;5125518;27;20458;-86
2024/01/01 01:28:50;;;;;;;60.55;47.08;;;7.30;99.90;;;;;;5110007;27;20407;-87
2024/01/01 01:31:15;;;;;;;61.33;48.17;;;7.30;99.90;;;;;;5109140;27;20881;-88
2024/01/01 01:33:41;;;;;;;61.07;46.17;;;7.30;99.90;;;;;;5109809;27;20889;-86
2024/01/01 01:36:08;;;;;;;58.00;45.67;;;7.30;99.90;;;;;;5127570;27;20426;-89
2024/01/01 01:38:35;;;;;;;59.63;45.17;;;7.40;99.90;;;;;;5108617;27;20411;-90
2024/01/01 01:41:01;;;;;;;55.95;44.20;;;7.50;99.90;;;;;;5128837;27;20453;-91
2024/01/01 01:43:27;;;;;;;54.55;43.40;;;7.40;99.90;;;;;;5133278;27;20410;-89
2024/01/01 01:45:54;;;;;;;53.63;43.30;;;7.40;99.90;;;;;;5110227;27;20430;-89
2024/01/01 01:48:21;;;;;;;49.00;38.88;;;7.70;99.90;;;;;;5126702;27;20491;-88
2024/01/01 01:50:49;;;;;;;53.78;43.00;;;7.50;99.90;;;;;;5109773;27;20426;-89
2024/01/01 01:53:23;;;;;;;53.67;44.42;;;7.70;99.90;;;;;;5110284;27;20485;-89
2024/01/01 01:55:50;;;;;;;58.30;47.70;;;7.50;99.90;;;;;;5108557;28;20749;-90
2024/01/01 01:58:17;;;;;;;57.35;47.10;;;7.50;99.90;;;;;;5109690;28;20429;-88
2024/01/01 02:00:45;;;;;;;53.30;41.83;;;7.90;99.90;;;;;;5108436;27;20399;-89
2024/01/01 02:03:12;;;;;;;53.67;42.83;;;7.50;99.90;;;;;;5112213;27;20399;-87
2024/01/01 02:05:38;;;;;;;49.78;39.63;;;7.60;99.90;;;;;;5129648;27;20436;-86
2024/01/01 02:08:05;;;;;;;50.38;40.90;;;7.60;99.90;;;;;;5112429;28;20901;-89
2024/01/01 02:10:31;;;;;;;54.93;43.53;;;7.60;99.90;;;;;;5127182;27;20399;-87
2024/01/01 02:12:56;;;;;;;53.13;42.33;;;7.90;99.90;;;;;;5108891;28;20904;-87
2024/01/01 02:15:22;;;;;;;62.97;46.08;;;7.50;99.90;;;;;;5130390;27;20417;-88
2024/01/01 02:17:48;;;;;;;60.22;45.10;;;7.50;99.90;;;;;;5128696;27;20488;-89
2024/01/01 02:20:15;;;;;;;63.30;47.22;;;7.50;99.90;;;;;;5131133;27;20390;-90
2024/01/01 02:22:41;;;;;;;70.10;49.70;;;7.20;99.90;;;;;;5129736;27;20408;-88
2024/01/01 02:25:08;;;;;;;63.45;44.05;;;7.10;99.90;;;;;;5148177;27;20432;-88
2024/01/01 02:27:35;;;;;;;68.75;46.55;;;7.10;99.90;;;;;;5130758;27;20480;-90
2024/01/01 02:30:01;;;;;;;76.25;48.97;;;7.00;99.90;;;;;;5130024;27;21032;-90
2024/01/01 02:32:26;;;;;;;75.72;50.65;;;7.00;99.90;;;;;;5131120;27;20401;-88
2024/01/01 02:34:53;;;;;;;67.72;43.47;;;6.90;99.90;;;;;;5129863;27;20405;-90
2024/01/01 02:37:18;;;;;;;65.65;44.95;;;6.80;99.90;;;;;;5131204;27;20404;-89
2024/01/01 02:39:44;;;;;;;68.43;48.05;;;7.10;99.90;;;;;;5146464;27;20408;-90
2024/01/01 02:42:10;;;;;;;61.15;43.10;;;6.90;99.90;;;;;;5131367;27;21481;-89
2024/01/01 02:44:35;;;;;;;82.60;51.50;;;6.90;99.90;;;;;;5129088;27;20457;-87
2024/01/01 02:47:01;;;;;;;60.25;39.72;;;6.90;99.90;;;;;;5131186;27;20476;-89
2024/01/01 02:49:27;;;;;;;67.13;44.50;;;6.90;99.90;;;;;;5120340;27;20412;-88
2024/01/01 02:51:52;;;;;;;58.53;38.47;;;6.80;99.90;;;;;;5131702;27;20440;-89
2024/01/01 02:54:19;;;;;;;57.47;36.17;;;6.90;99.90;;;;;;5125090;27;20826;-91
2024/01/01 02:56:45;;;;;;;56.00;37.17;;;6.90;99.90;;;;;;5148766;27;20401;-91
2024/01/01 02:59:11;;;;;;;45.73;30.20;;;6.80;99.90;;;;;;5123264;27;20409;-90
2024/01/01 03:01:36;;;;;;;51.53;35.33;;;6.70;99.90;;;;;;5112659;27;20889;-90
2024/01/01 03:04:02;;;;;;;51.03;33.10;;;6.80;99.90;;;;;;5114372;27;20405;-90
2024/01/01 03:06:28;;;;;;;49.67;32.60;;;6.80;99.90;;;;;;5134044;27;20424;-90
2024/01/01 03:08:54;;;;;;;49.47;31.45;;;7.00;99.90;;;;;;5133338;27;20433;-88
2024/01/01 03:11:19;;;;;;;45.58;29.08;;;6.80;99.90;;;;;;5134643;27;20389;-90
2024/01/01 03:13:46;;;;;;;47.87;30.40;;;6.80;99.90;;;;;;5125423;27;20394;-90
2024/01/01 03:16:13;;;;;;;40.72;26.90;;;6.80;99.90;;;;;;5116438;27;20403;-89
2024/01/01 03:18:39;;;;;;;35.07;24.90;;;7.20;99.90;;;;;;5149833;27;20419;-88
2024/01/01 03:21:05;;;;;;;37.60;24.37;;;6.90;99.90;;;;;;5134215;27;20887;-91
2024/01/01 03:23:30;;;;;;;46.45;26.42;;;7.10;99.90;;;;;;5133013;27;20401;-89
2024/01/01 03:25:56;;;;;;;37.63;22.38;;;6.90;99.90;;;;;;5150609;27;20829;-91
2024/01/01 03:28:22;;;;;;;37.35;22.23;;;7.00;99.90;;;;;;5134232;27;20464;-89
2024/01/01 03:30:48;;;;;;;33.30;19.87;;;7.60;99.90;;;;;;5131879;27;20404;-93
2024/01/01 03:33:13;;;;;;;35.92;20.63;;;7.00;99.90;;;;;;5134117;27;20457;-92
2024/01/01 03:35:39;;;;;;;37.28;22.20;;;6.80;99.90;;;;;;5132784;27;20449;-88
2024/01/01 03:38:05;;;;;;;38.10;21.07;;;6.90;99.90;;;;;;5125642;27;20415;-90
2024/01/01 03:40:30;;;;;;;31.30;17.77;;;6.70;99.90;;;;;;5129119;27;20793;-92
2024/01/01 03:42:56;;;;;;;31.33;16.70;;;7.20;99.90;;;;;;5112933;27;20740;-88
2024/01/01 03:45:22;;;;;;;35.63;16.90;;;6.80;99.90;;;;;;5112203;27;20518;-90
2024/01/01 03:47:48;;;;;;;27.20;15.80;;;6.90;99.90;;;;;;5111885;27;20419;-91
2024/01/01 03:50:16;;;;;;;25.47;14.50;;;7.10;99.90;;;;;;5112839;27;20391;-91
2024/01/01 03:52:42;;;;;;;27.40;15.25;;;6.90;99.90;;;;;;5111496;27;20742;-91
2024/01/01 03:55:07;;;;;;;27.23;14.00;;;7.00;99.90;;;;;;5113203;27;20399;-88
2024/01/01 03:57:33;;;;;;;26.80;13.60;;;7.00;99.90;;;;;;5111324;27;20399;-90
2024/01/01 04:00:00;;;;;;;27.00;13.50;;;7.10;99.90;;;;;;5112936;27;20402;-90
2024/01/01 04:02:26;;;;;;;24.88;11.07;;;6.90;99.90;;;;;;5111173;27;20391;-90
2024/01/01 04:04:51;;;;;;;24.40;12.10;;;7.00;99.90;;;;;;5112061;27;20414;-89
2024/01/01 04:07:17;;;;;;;22.80;12.32;;;6.90;99.90;;;;;;5113311;27;20405;-90
2024/01/01 04:09:44;;;;;;;21.90;10.40;;;6.90;99.90;;;;;;5111204;27;20935;-90
2024/01/01 04:12:09;;;;;;;25.55;12.77;;;7.30;99.90;;;;;;5113000;27;20399;-90
2024/01/01 04:14:36;;;;;;;20.73;10.57;;;6.90;99.90;;;;;;5110679;27;20406;-89
2024/01/01 04:17:03;;;;;;;26.40;12.07;;;7.20;99.90;;;;;;5112721;27;20757;-90
2024/01/01 04:19:29;;;;;;;23.35;11.85;;;6.90;99.90;;;;;;5111673;27;20410;-89
2024/01/01 04:21:55;;;;;;;21.20;10.30;;;7.10;99.90;;;;;;5112361;27;20403;-92
2024/01/01 04:24:21;;;;;;;25.45;11.27;;;6.80;99.90;;;;;;5112501;27;20410;-91
2024/01/01 04:26:47;;;;;;;25.20;11.90;;;7.10;99.90;;;;;;5111184;27;20423;-90
2024/01/01 04:29:14;;;;;;;20.35;9.45;;;6.90;99.90;;;;;;5112742;27;20916;-88
2024/01/01 04:31:40;;;;;;;19.60;9.48;;;7.10;99.90;;;;;;5110122;27;20422;-90
2024/01/01 04:34:06;;;;;;;21.13;9.98;;;6.80;99.90;;;;;;5112415;27;20507;-91
2024/01/01 04:36:32;;;;;;;21.75;9.48;;;6.80;99.90;;;;;;5129304;27;20401;-88
2024/01/01 04:38:59;;;;;;;22.30;10.03;;;7.10;99.90;;;;;;5132985;27;20425;-91
2024/01/01 04:41:25;;;;;;;18.88;7.47;;;6.80;99.90;;;;;;5132248;27;20721;-89
2024/01/01 04:43:51;;;;;;;14.63;7.18;;;7.00;99.90;;;;;;5127882;27;20459;-92
2024/01/01 04:46:16;;;;;;;20.38;8.70;;;7.10;99.90;;;;;;5129268;27;20434;-88
2024/01/01 04:48:42;;;;;;;20.07;8.27;;;6.90;99.90;;;;;;5110560;27;20391;-91
2024/01/01 04:51:08;;;;;;;18.70;7.90;;;6.80;99.90;;;;;;5129555;27;20402;-90
2024/01/01 04:53:33;;;;;;;21.23;7.60;;;6.60;99.90;;;;;;5109974;27;20399;-91
2024/01/01 04:55:59;;;;;;;18.38;7.82;;;6.70;99.90;;;;;;5112611;27;20984;-93
2024/01/01 04:58:25;;;;;;;18.30;7.80;;;6.80;99.90;;;;;;5110924;27;20482;-92
2024/01/01 05:00:50;;;;;;;16.58;6.50;;;6.70;99.90;;;;;;5112059;27;20473;-91
2024/01/01 05:03:16;;;;;;;18.10;7.47;;;6.80;99.90;;;;;;5126924;27;20401;-90
2024/01/01 05:05:42;;;;;;;18.23;8.10;;;6.70;99.90;;;;;;5120604;27;20433;-90
2024/01/01 05:08:07;;;;;;;17.00;7.27;;;6.70;99.90;;;;;;5112050;27;20442;-93
2024/01/01 05:10:33;;;;;;;30.73;10.77;;;6.70;99.90;;;;;;5109738;27;20494;-92
2024/01/01 05:12:59;;;;;;;32.05;10.00;;;6.80;99.90;;;;;;5111743;27;20420;-91
2024/01/01 05:15:25;;;;;;;19.20;6.47;;;6.80;99.90;;;;;;5126250;27;20393;-93
2024/01/01 05:17:51;;;;;;;17.80;6.73;;;7.00;99.90;;;;;;5132414;27;20393;-92
2024/01/01 05:20:17;;;;;;;19.20;6.80;;;6.80;99.90;;;;;;5131775;27;20949;-93
2024/01/01 05:22:43;;;;;;;18.80;7.20;;;6.80;99.90;;;;;;5148609;27;20413;-92
2024/01/01 05:25:09;;;;;;;19.60;7.65;;;6.80;99.90;;;;;;5132353;27;20409;-92
2024/01/01 05:27:34;;;;;;;17.10;7.50;;;6.80;99.90;;;;;;5130188;27;20408;-94
2024/01/01 05:30:04;;;;;;;16.07;6.47;;;6.70;99.90;;;;;;5131717;27;20401;-93
2024/01/01 05:32:31;;;;;;;11.27;3.35;;;6.90;99.90;;;;;;5129553;27;20405;-92
2024/01/01 05:34:56;;;;;;;14.77;4.50;;;6.90;99.90;;;;;;5132076;27;20425;-90
2024/01/01 05:37:22;;;;;;;16.00;5.35;;;6.80;99.90;;;;;;5147709;27;20393;-92
2024/01/01 05:39:48;;;;;;;12.10;3.90;;;6.80;99.90;;;;;;5131698;27;20396;-94
2024/01/01 05:42:14;;;;;;;10.23;3.37;;;6.80;99.90;;;;;;5131812;27;20914;-92
2024/01/01 05:44:39;;;;;;;9.07;3.10;;;6.80;99.90;;;;;;5123181;27;20433;-92
2024/01/01 05:47:05;;;;;;;12.60;4.10;;;6.90;99.90;;;;;;5111598;27;21019;-93
2024/01/01 05:49:31;;;;;;;11.48;5.05;;;7.10;99.90;;;;;;5108918;27;20391;-91
2024/01/01 05:51:57;;;;;;;18.07;6.70;;;6.80;99.90;;;;;;5110886;28;20445;-92
2024/01/01 05:54:22;;;;;;;19.17;6.88;;;6.90;99.90;;;;;;5108319;28;20410;-91
2024/01/01 05:56:48;;;;;;;20.35;6.68;;;6.90;99.90;;;;;;5111100;27;20399;-91
2024/01/01 05:59:13;;;;;;;21.03;7.57;;;7.00;99.90;;;;;;5109724;28;20446;-92
2024/01/01 06:01:40;;;;;;;17.87;5.43;;;7.10;99.90;;;;;;5127166;27;20482;-92
2024/01/01 06:04:06;;;;;;;15.93;4.95;;;7.20;99.90;;;;;;5110934;28;20402;-93
2024/01/01 06:06:31;;;;;;;17.93;5.27;;;6.90;99.90;;;;;;5109216;28;20425;-90
2024/01/01 06:08:57;;;;;;;18.57;5.53;;;7.20;99.90;;;;;;5111326;28;20475;-90
2024/01/01 06:11:23;;;;;;;16.95;3.92;;;7.00;99.90;;;;;;5109443;28;20403;-91
2024/01/01 06:13:49;;;;;;;14.90;4.57;;;7.10;99.90;;;;;;5111233;28;20866;-92
2024/01/01 06:16:15;;;;;;;16.33;4.17;;;7.20;99.90;;;;;;5109546;27;20406;-90
2024/01/01 06:18:41;;;;;;;21.20;5.80;;;7.10;99.90;;;;;;5110952;28;20397;-92
2024/01/01 06:21:06;;;;;;;23.38;5.40;;;7.10;99.90;;;;;;5120699;27;20393;-92
2024/01/01 06:23:32;;;;;;;16.90;4.60;;;7.10;99.90;;;;;;5147238;27;20421;-88
2024/01/01 06:25:58;;;;;;;19.80;3.90;;;7.20;99.90;;;;;;5133074;27;20757;-94
2024/01/01 06:28:26;;;;;;;18.90;4.85;;;7.00;99.90;;;;;;5134250;27;20408;-93
2024/01/01 06:30:52;;;;;;;21.73;5.30;;;7.10;99.90;;;;;;5135429;27;20399;-94
2024/01/01 06:33:21;;;;;;;20.85;4.28;;;7.10;99.90;;;;;;5117508;27;20729;-93
2024/01/01 06:35:46;;;;;;;19.30;4.88;;;7.30;99.90;;;;;;5128999;27;20460;-93
2024/01/01 06:38:12;;;;;;;22.67;5.10;;;7.20;99.90;;;;;;5112829;27;20442;-89
2024/01/01 06:40:38;;;;;;;24.57;5.70;;;7.30;99.90;;;;;;5133589;27;20393;-91
2024/01/01 06:43:04;;;;;;;23.65;6.32;;;7.20;99.90;;;;;;5135180;27;20404;-91
2024/01/01 06:45:29;;;;;;;25.67;6.07;;;7.30;99.90;;;;;;5150770;27;20424;-91
2024/01/01 06:47:55;;;;;;;19.67;4.43;;;7.50;99.90;;;;;;5135430;27;20393;-91
2024/01/01 06:50:22;;;;;;;23.93;5.40;;;7.00;99.90;;;;;;5131108;27;20389;-90
2024/01/01 06:52:47;;;;;;;30.90;6.10;;;7.30;99.90;;;;;;5114884;27;20398;-91
2024/01/01 06:55:16;;;;;;;24.83;6.37;;;7.40;99.90;;;;;;5112958;27;20401;-92
2024/01/01 06:57:41;;;;;;;11.55;1.55;;;7.30;99.90;;;;;;5115216;27;20396;-96
2024/01/01 07:00:07;;;;;;;8.67;1.17;;;7.30;99.90;;;;;;5114971;27;20501;-94
2024/01/01 07:02:33;;;;;;;6.65;0.40;;;7.00;99.90;;;;;;5111691;27;20447;-94
2024/01/01 07:04:59;;;;;;;3.58;0.22;;;6.60;99.90;;;;;;5114328;27;20403;-94
2024/01/01 07:07:24;;;;;;;2.90;0.20;;;6.70;99.90;;;;;;5112280;27;20811;-91
2024/01/01 07:09:50;;;;;;;4.45;0.30;;;6.80;99.90;;;;;;5114600;27;20463;-93
2024/01/01 07:12:21;;;;;;;3.67;0.20;;;6.50;99.90;;;;;;5120776;27;20402;-92
2024/01/01 07:14:47;;;;;;;4.05;0.30;;;6.50;99.90;;;;;;5131309;27;20400;-93
2024/01/01 07:17:13;;;;;;;4.18;0.25;;;6.60;99.90;;;;;;5134050;27;20800;-91
2024/01/01 07:19:39;;;;;;;7.00;0.50;;;6.40;99.90;;;;;;5133449;27;20478;-93
2024/01/01 07:22:05;;;;;;;5.75;0.40;;;7.00;99.90;;;;;;5125124;27;20540;-94
2024/01/01 07:24:31;;;;;;;3.78;0.30;;;6.40;99.90;;;;;;5111487;27;20398;-91
2024/01/01 07:26:57;;;;;;;6.15;0.40;;;6.40;99.90;;;;;;5113711;27;20418;-92
2024/01/01 07:29:23;;;;;;;6.78;0.50;;;6.60;99.90;;;;;;5111152;27;20401;-92
2024/01/01 07:31:49;;;;;;;5.25;0.40;;;6.50;99.90;;;;;;5113576;27;20399;-94
2024/01/01 07:34:19;;;;;;;6.60;0.60;;;6.60;99.90;;;;;;5112257;27;20401;-92
2024/01/01 07:36:46;;;;;;;6.33;0.63;;;7.00;99.90;;;;;;5112858;28;20395;-91
2024/01/01 07:39:12;;;;;;;7.78;0.70;;;6.70;99.90;;;;;;5112300;27;20403;-94
2024/01/01 07:41:38;;;;;;;4.10;0.70;;;6.50;99.90;;;;;;5113026;27;20447;-92
2024/01/01 07:44:04;;;;;;;8.23;0.70;;;6.60;99.90;;;;;;5113797;27;20402;-92
2024/01/01 07:46:30;;;;;;;8.60;1.00;;;6.50;99.90;;;;;;5129413;27;20455;-94
2024/01/01 07:48:56;;;;;;;5.60;0.60;;;6.70;99.90;;;;;;5138675;27;20744;-95
2024/01/01 07:51:22;;;;;;;8.38;0.80;;;6.60;99.90;;;;;;5133591;27;20400;-95
2024/01/01 07:53:50;;;;;;;7.45;0.70;;;7.00;99.90;;;;;;5134336;27;20404;-94
2024/01/01 07:56:15;;;;;;;8.35;1.30;;;6.50;99.90;;;;;;5133198;27;20397;-93
2024/01/01 07:58:44;;;;;;;6.50;1.00;;;7.10;99.90;;;;;;5151834;27;20405;-95
2024/01/01 08:01:10;;;;;;;6.53;0.80;;;6.90;99.90;;;;;;5120132;27;20418;-92
2024/01/01 08:03:35;;;;;;;7.13;0.70;;;6.70;99.90;;;;;;5111371;27;20395;-94
2024/01/01 08:06:04;;;;;;;7.55;0.70;;;6.70;99.90;;;;;;5113531;27;20451;-93
2024/01/01 08:08:30;;;;;;;7.20;0.73;;;6.60;99.90;;;;;;5110957;27;20422;-90
2024/01/01 08:10:55;;;;;;;7.55;0.88;;;6.90;99.90;;;;;;5130001;27;20455;-93
2024/01/01 08:13:21;;;;;;;11.30;1.47;;;6.50;99.90;;;;;;5111701;27;20413;-93
2024/01/01 08:15:47;;;;;;;11.23;1.45;;;6.80;99.90;;;;;;5113423;27;20395;-94
2024/01/01 08:18:12;;;;;;;15.18;2.30;;;6.70;99.90;;;;;;5115738;27;20409;-92
2024/01/01 08:20:40;;;;;;;10.80;1.20;;;6.60;99.90;;;;;;5112657;27;20453;-93
2024/01/01 08:23:06;;;;;;;10.07;1.65;;;6.60;99.90;;;;;;5095870;27;20454;-90
2024/01/01 08:25:31;;;;;;;9.87;1.70;;;7.00;99.90;;;;;;5127619;27;20430;-92
2024/01/01 08:27:58;;;;;;;14.60;1.92;;;6.70;99.90;;;;;;5113034;27;20414;-90
2024/01/01 08:30:23;;;;;;;10.27;1.60;;;6.50;99.90;;;;;;5110562;27;20438;-92
2024/01/01 08:32:49;;;;;;;11.45;1.65;;;6.70;99.90;;;;;;5113159;27;20805;-89
2024/01/01 08:35:15;;;;;;;20.77;2.85;;;6.70;99.90;;;;;;5111518;27;20860;-92
2024/01/01 08:37:42;;;;;;;14.43;2.00;;;6.80;99.90;;;;;;5129685;27;20429;-92
2024/01/01 08:40:10;;;;;;;15.25;2.50;;;6.70;99.90;;;;;;5112196;27;20399;-94
2024/01/01 08:42:36;;;;;;;10.07;1.20;;;6.80;99.90;;;;;;5109874;27;20416;-94
2024/01/01 08:45:06;;;;;;;9.20;0.90;;;6.80;99.90;;;;;;5115044;27;20477;-90
2024/01/01 08:47:32;;;;;;;7.40;0.80;;;6.70;99.90;;;;;;5107382;27;20406;-92
2024/01/01 08:49:57;;;;;;;7.13;1.40;;;6.90;99.90;;;;;;5115040;27;20901;-94
2024/01/01 08:52:23;;;;;;;14.30;2.00;;;7.10;99.90;;;;;;5111566;27;20403;-93
2024/01/01 08:54:56;;;;;;;10.93;1.63;;;6.70;99.90;;;;;;5116651;27;20482;-96
2024/01/01 08:57:22;;;;;;;12.55;2.13;;;6.70;99.90;;;;;;5109564;27;20640;-96
2024/01/01 08:59:48;;;;;;;14.18;2.15;;;6.80;99.90;;;;;;5111311;27;20457;-92
2024/01/01 09:02:16;;;;;;;10.55;2.25;;;6.80;99.90;;;;;;5112385;27;20917;-94
2024/01/01 09:04:42;;;;;;;8.82;1.40;;;6.70;99.90;;;;;;5109775;27;20460;-93
2024/01/01 09:07:08;;;;;;;7.97;1.10;;;7.20;99.90;;;;;;5111808;27;20449;-93
2024/01/01 09:09:34;;;;;;;7.70;1.00;;;6.70;99.90;;;;;;5109276;27;20410;-93
2024/01/01 09:12:00;;;;;;;7.18;1.13;;;7.10;99.90;;;;;;5111340;27;20402;-95
2024/01/01 09:14:25;;;;;;;8.00;1.13;;;6.60;99.90;;;;;;5110057;27;20406;-93
2024/01/01 09:16:51;;;;;;;9.52;1.70;;;7.20;99.90;;;;;;5111231;27;20462;-94
2024/01/01 09:19:20;;;;;;;10.20;1.40;;;6.60;99.90;;;;;;5113596;27;20426;-96
2024/01/01 09:21:48;;;;;;;7.20;1.02;;;6.90;99.90;;;;;;5112276;27;20900;-94
2024/01/01 09:24:14;;;;;;;8.75;1.27;;;6.60;99.90;;;;;;5114750;27;20433;-93
2024/01/01 09:26:49;;;;;;;11.88;1.70;;;6.60;99.90;;;;;;5113720;27;20418;-95
2024/01/01 09:29:17;;;;;;;13.07;2.55;;;6.70;99.90;;;;;;5115900;27;22175;-94
2024/01/01 09:31:43;;;;;;;14.10;2.08;;;6.70;99.90;;;;;;5089550;28;20908;-93
2024/01/01 09:34:08;;;;;;;13.57;2.17;;;7.00;99.90;;;;;;5139254;27;20391;-94
2024/01/01 09:36:34;;;;;;;13.13;1.53;;;6.80;99.90;;;;;;5111256;27;20395;-94
2024/01/01 09:39:00;;;;;;;14.25;2.00;;;7.00;99.90;;;;;;5113250;27;20898;-94
2024/01/01 09:41:29;;;;;;;14.63;1.90;;;6.90;99.90;;;;;;5112097;27;20418;-94
2024/01/01 09:43:58;;;;;;;14.15;2.58;;;6.90;99.90;;;;;;5111704;27;20882;-95
2024/01/01 09:46:28;;;;;;;18.42;2.70;;;6.90;99.90;;;;;;5113412;27;20945;-93
2024/01/01 09:48:57;;;;;;;12.15;2.10;;;7.10;99.90;;;;;;5110005;28;20394;-96
2024/01/01 09:51:22;;;;;;;18.92;2.88;;;7.20;99.90;;;;;;5114482;27;20402;-94
2024/01/01 09:53:52;;;;;;;19.23;3.03;;;7.30;99.90;;;;;;5110737;27;21314;-96
2024/01/01 09:56:18;;;;;;;19.80;3.45;;;7.20;99.90;;;;;;5111941;28;20498;-93
2024/01/01 09:58:45;;;;;;;18.13;2.88;;;7.00;99.90;;;;;;5099855;28;20391;-92
2024/01/01 10:01:18;;;;;;;18.75;2.83;;;7.60;99.90;;;;;;5108046;28;20477;-93
2024/01/01 10:04:00;;;;;;;25.13;3.70;;;7.20;99.90;;;;;;5110180;28;20441;-92
2024/01/01 10:06:26;;;;;;;18.25;3.10;;;7.40;99.90;;;;;;5125249;27;20436;-94
2024/01/01 10:08:52;;;;;;;17.15;2.20;;;7.20;99.90;;;;;;5111531;28;20395;-93
2024/01/01 10:11:20;;;;;;;23.88;3.15;;;7.50;99.90;;;;;;5109082;28;20465;-93
2024/01/01 10:13:47;;;;;;;20.77;2.78;;;7.50;99.90;;;;;;5110690;28;20416;-94
2024/01/01 10:16:26;;;;;;;21.85;3.10;;;7.30;99.90;;;;;;5109702;28;20407;-92
2024/01/01 10:18:56;;;;;;;17.80;2.60;;;7.40;99.90;;;;;;5109294;27;20463;-93
2024/01/01 10:21:29;;;;;;;22.20;2.90;;;7.50;99.90;;;;;;5110704;28;20407;-92
2024/01/01 10:23:56;;;;;;;24.02;3.08;;;7.70;99.90;;;;;;5109124;28;20406;-92
2024/01/01 10:26:22;;;;;;;16.42;2.35;;;7.50;99.90;;;;;;5110828;28;20434;-91
2024/01/01 10:28:48;;;;;;;18.83;2.78;;;7.50;99.90;;;;;;5108546;28;20428;-92
2024/01/01 10:31:15;;;;;;;24.10;2.70;;;7.50;99.90;;;;;;5111024;28;20399;-91
2024/01/01 10:33:41;;;;;;;21.10;3.23;;;7.30;99.90;;;;;;5110267;28;20979;-92
2024/01/01 10:36:08;;;;;;;26.38;3.45;;;7.50;99.90;;;;;;5092175;28;20400;-92
2024/01/01 10:38:36;;;;;;;26.00;3.17;;;7.60;99.90;;;;;;5107679;28;20436;-91
2024/01/01 10:41:02;;;;;;;26.53;2.87;;;7.60;99.90;;;;;;5088593;28;20405;-90
2024/01/01 10:43:28;;;;;;;22.90;2.47;;;7.50;99.90;;;;;;5108148;28;20488;-91
2024/01/01 10:46:03;;;;;;;24.02;2.35;;;7.80;99.90;;;;;;5105618;28;20470;-90
2024/01/01 10:48:33;;;;;;;21.63;2.80;;;7.60;99.90;;;;;;5107389;28;20487;-91
2024/01/01 10:51:41;;;;;;;21.25;3.40;;;7.60;99.90;;;;;;5106789;28;20400;-93
2024/01/01 10:54:36;;;;;;;18.87;2.23;;;7.60;99.90;;;;;;5104842;27;20476;-92
2024/01/01 10:57:36;;;;;;;16.15;1.98;;;7.50;99.90;;;;;;5110794;28;20403;-90
2024/01/01 11:00:11;;;;;;;21.90;2.58;;;7.60;99.90;;;;;;5110172;28;20407;-91
2024/01/01 11:02:39;;;;;;;22.53;2.70;;;7.60;99.90;;;;;;5130152;27;20462;-92
2024/01/01 11:05:11;;;;;;;17.20;2.85;;;7.60;99.90;;;;;;5108533;27;20402;-91
2024/01/01 11:07:52;;;;;;;22.60;3.17;;;7.80;99.90;;;;;;5108866;28;20422;-90
2024/01/01 11:10:38;;;;;;;21.88;2.88;;;7.60;99.90;;;;;;5137872;27;20518;-92
2024/01/01 11:13:05;;;;;;;23.10;2.95;;;7.60;99.90;;;;;;5110072;27;20418;-90
2024/01/01 11:15:47;;;;;;;19.43;2.70;;;7.60;99.90;;;;;;5112286;27;20485;-92
2024/01/01 11:18:13;;;;;;;15.90;2.58;;;7.60;99.90;;;;;;5114697;27;20408;-88
2024/01/01 11:20:55;;;;;;;20.50;2.88;;;7.60;99.90;;;;;;5112402;27;20399;-90
2024/01/01 11:23:41;;;;;;;16.38;2.08;;;7.90;99.90;;;;;;5113278;27;20440;-89
2024/01/01 11:26:32;;;;;;;15.10;1.52;;;7.90;99.90;;;;;;5113826;27;20426;-91
2024/01/01 11:29:24;;;;;;;14.60;1.60;;;7.40;99.90;;;;;;5112302;27;20410;-89
2024/01/01 11:32:03;;;;;;;13.27;1.33;;;7.30;99.90;;;;;;5123070;27;20425;-91
2024/01/01 11:34:28;;;;;;;11.85;1.38;;;7.50;99.90;;;;;;5133688;27;20431;-93
2024/01/01 11:36:54;;;;;;;13.25;1.80;;;7.30;99.90;;;;;;5132269;27;20458;-92
2024/01/01 11:39:26;;;;;;;20.40;2.10;;;7.30;99.90;;;;;;5133418;27;20393;-90
2024/01/01 11:41:51;;;;;;;16.55;2.10;;;7.30;99.90;;;;;;5113926;27;20436;-89
2024/01/01 11:44:18;;;;;;;22.27;2.57;;;7.30;99.90;;;;;;5126062;27;20405;-87
2024/01/01 11:46:46;;;;;;;18.58;2.33;;;7.40;99.90;;;;;;5132571;27;20464;-88
2024/01/01 11:49:12;;;;;;;19.75;2.58;;;7.40;99.90;;;;;;5147670;27;20399;-91
2024/01/01 11:51:57;;;;;;;19.77;2.13;;;7.40;99.90;;;;;;5130191;27;20405;-90
2024/01/01 11:54:27;;;;;;;20.40;2.80;;;7.40;99.90;;;;;;5111764;27;20418;-87
2024/01/01 11:57:01;;;;;;;19.98;2.25;;;7.50;99.90;;;;;;5113372;27;20406;-91
2024/01/01 11:59:29;;;;;;;15.05;2.30;;;7.50;99.90;;;;;;5111243;27;20383;-90
2024/01/01 12:01:56;;;;;;;17.27;2.30;;;7.50;99.90;;;;;;5112900;27;20414;-88
2024/01/01 12:04:22;;;;;;;16.08;2.03;;;7.50;99.90;;;;;;5112118;27;20452;-88
2024/01/01 12:06:51;;;;;;;13.17;1.60;;;7.50;99.90;;;;;;5111836;27;20454;-87
2024/01/01 12:09:18;;;;;;;16.52;2.00;;;7.50;99.90;;;;;;5133010;27;20491;-88
2024/01/01 12:11:44;;;;;;;17.02;1.92;;;7.60;99.90;;;;;;5131739;27;20464;-88
2024/01/01 12:14:10;;;;;;;19.27;2.00;;;7.50;99.90;;;;;;5133510;27;20400;-90
2024/01/01 12:16:36;;;;;;;15.55;2.00;;;7.60;99.90;;;;;;5131125;27;20922;-94
2024/01/01 12:19:05;;;;;;;16.33;2.22;;;7.60;99.90;;;;;;5150357;27;20488;-91
2024/01/01 12:21:41;;;;;;;17.25;2.50;;;7.80;99.90;;;;;;5131641;27;20400;-94
2024/01/01 12:24:09;;;;;;;13.48;1.58;;;7.60;99.90;;;;;;5113412;27;20403;-88
2024/01/01 12:26:35;;;;;;;18.35;1.58;;;7.90;99.90;;;;;;5112118;27;20422;-87
2024/01/01 12:29:18;;;;;;;14.57;2.03;;;7.60;99.90;;;;;;5110880;27;20441;-88
2024/01/01 12:31:45;;;;;;;14.82;1.50;;;7.60;99.90;;;;;;5112360;27;20410;-91
2024/01/01 12:34:15;;;;;;;14.88;1.45;;;7.60;99.90;;;;;;5111019;27;20441;-88
2024/01/01 12:36:43;;;;;;;15.10;1.35;;;7.60;99.90;;;;;;5111854;27;20407;-92
2024/01/01 12:39:10;;;;;;;12.27;1.60;;;7.80;99.90;;;;;;5129391;27;20389;-92
2024/01/01 12:41:36;;;;;;;14.07;1.65;;;7.50;99.90;;;;;;5117943;27;20403;-88
2024/01/01 12:44:02;;;;;;;12.25;1.52;;;8.00;99.90;;;;;;5119603;27;20425;-88
2024/01/01 12:46:27;;;;;;;15.50;1.80;;;7.50;99.90;;;;;;5130309;27;20517;-88